sensor_id;sensor_type;location;lat;lon;timestamp;P1;durP1;ratioP1;P2;durP2;ratioP2
81960;SDS011;71462;50.650;6.888;2023-07-31T00:00:40;6.57;;;2.50;;
81960;SDS011;71462;50.650;6.888;2023-07-31T00:02:42;8.90;;;3.75;;
81960;SDS011;71462;50.650;6.888;2023-07-31T00:04:46;6.55;;;2.70;;
81960;SDS011;71462;50.650;6.888;2023-07-31T00:06:50;6.10;;;2.80;;
81960;SDS011;71462;50.650;6.888;2023-07-31T00:08:51;6.90;;;2.97;;
81960;SDS011;71462;50.650;6.888;2023-07-31T00:10:54;6.82;;;2.75;;
81960;SDS011;71462;50.650;6.888;2023-07-31T00:12:56;7.25;;;2.70;;
81960;SDS011;71462;50.650;6.888;2023-07-31T00:14:59;6.55;;;2.58;;
81960;SDS011;71462;50.650;6.888;2023-07-31T00:17:03;5.10;;;2.53;;
81960;SDS011;71462;50.650;6.888;2023-07-31T00:19:06;6.18;;;2.80;;
81960;SDS011;71462;50.650;6.888;2023-07-31T00:21:09;7.38;;;2.80;;
81960;SDS011;71462;50.650;6.888;2023-07-31T00:23:12;7.93;;;2.72;;
81960;SDS011;71462;50.650;6.888;2023-07-31T00:25:15;5.28;;;2.92;;
81960;SDS011;71462;50.650;6.888;2023-07-31T00:27:17;7.32;;;2.78;;
81960;SDS011;71462;50.650;6.888;2023-07-31T00:29:19;6.72;;;2.80;;
81960;SDS011;71462;50.650;6.888;2023-07-31T00:31:21;5.05;;;2.70;;
81960;SDS011;71462;50.650;6.888;2023-07-31T00:33:24;7.65;;;2.58;;
81960;SDS011;71462;50.650;6.888;2023-07-31T00:35:27;7.13;;;2.90;;
81960;SDS011;71462;50.650;6.888;2023-07-31T00:37:31;8.23;;;3.10;;
81960;SDS011;71462;50.650;6.888;2023-07-31T00:39:33;6.82;;;2.80;;
81960;SDS011;71462;50.650;6.888;2023-07-31T00:41:36;6.38;;;2.90;;
81960;SDS011;71462;50.650;6.888;2023-07-31T00:43:39;8.13;;;2.80;;
81960;SDS011;71462;50.650;6.888;2023-07-31T00:45:40;6.85;;;2.92;;
81960;SDS011;71462;50.650;6.888;2023-07-31T00:47:43;5.20;;;2.50;;
81960;SDS011;71462;50.650;6.888;2023-07-31T00:49:46;4.78;;;2.38;;
81960;SDS011;71462;50.650;6.888;2023-07-31T00:51:49;6.45;;;2.60;;
81960;SDS011;71462;50.650;6.888;2023-07-31T00:53:53;6.95;;;2.78;;
81960;SDS011;71462;50.650;6.888;2023-07-31T00:55:55;8.85;;;2.90;;
81960;SDS011;71462;50.650;6.888;2023-07-31T00:57:58;6.03;;;2.70;;
81960;SDS011;71462;50.650;6.888;2023-07-31T01:00:01;10.48;;;3.17;;
81960;SDS011;71462;50.650;6.888;2023-07-31T01:02:04;5.80;;;2.58;;
81960;SDS011;71462;50.650;6.888;2023-07-31T01:04:07;7.53;;;2.72;;
81960;SDS011;71462;50.650;6.888;2023-07-31T01:06:12;7.00;;;2.35;;
81960;SDS011;71462;50.650;6.888;2023-07-31T01:08:18;7.68;;;2.90;;
81960;SDS011;71462;50.650;6.888;2023-07-31T01:10:33;8.57;;;2.85;;
81960;SDS011;71462;50.650;6.888;2023-07-31T01:12:42;6.53;;;2.85;;
81960;SDS011;71462;50.650;6.888;2023-07-31T01:14:51;5.53;;;2.95;;
81960;SDS011;71462;50.650;6.888;2023-07-31T01:16:54;7.70;;;3.03;;
81960;SDS011;71462;50.650;6.888;2023-07-31T01:18:57;5.90;;;2.80;;
81960;SDS011;71462;50.650;6.888;2023-07-31T01:21:03;9.07;;;3.00;;
81960;SDS011;71462;50.650;6.888;2023-07-31T01:23:26;6.50;;;3.20;;
81960;SDS011;71462;50.650;6.888;2023-07-31T01:25:53;6.97;;;3.10;;
81960;SDS011;71462;50.650;6.888;2023-07-31T01:28:03;9.48;;;3.20;;
81960;SDS011;71462;50.650;6.888;2023-07-31T01:30:08;7.60;;;3.13;;
81960;SDS011;71462;50.650;6.888;2023-07-31T01:32:16;6.63;;;3.22;;
81960;SDS011;71462;50.650;6.888;2023-07-31T01:34:21;7.70;;;3.05;;
81960;SDS011;71462;50.650;6.888;2023-07-31T01:36:24;9.07;;;2.95;;
81960;SDS011;71462;50.650;6.888;2023-07-31T01:38:27;6.60;;;3.00;;
81960;SDS011;71462;50.650;6.888;2023-07-31T01:40:29;6.47;;;2.92;;
81960;SDS011;71462;50.650;6.888;2023-07-31T01:42:33;8.73;;;3.55;;
81960;SDS011;71462;50.650;6.888;2023-07-31T01:44:36;10.63;;;3.40;;
81960;SDS011;71462;50.650;6.888;2023-07-31T01:46:39;8.10;;;3.53;;
81960;SDS011;71462;50.650;6.888;2023-07-31T01:48:42;9.25;;;3.65;;
81960;SDS011;71462;50.650;6.888;2023-07-31T01:50:44;10.60;;;3.53;;
81960;SDS011;71462;50.650;6.888;2023-07-31T01:52:47;8.88;;;3.75;;
81960;SDS011;71462;50.650;6.888;2023-07-31T01:54:52;7.63;;;2.92;;
81960;SDS011;71462;50.650;6.888;2023-07-31T01:56:57;12.85;;;4.47;;
81960;SDS011;71462;50.650;6.888;2023-07-31T01:59:01;7.90;;;3.38;;
81960;SDS011;71462;50.650;6.888;2023-07-31T02:01:03;6.22;;;3.15;;
81960;SDS011;71462;50.650;6.888;2023-07-31T02:03:06;10.00;;;3.83;;
81960;SDS011;71462;50.650;6.888;2023-07-31T02:05:09;9.13;;;3.63;;
81960;SDS011;71462;50.650;6.888;2023-07-31T02:07:11;7.68;;;3.08;;
81960;SDS011;71462;50.650;6.888;2023-07-31T02:09:14;8.45;;;3.58;;
81960;SDS011;71462;50.650;6.888;2023-07-31T02:11:17;8.52;;;3.15;;
81960;SDS011;71462;50.650;6.888;2023-07-31T02:13:19;9.05;;;3.10;;
81960;SDS011;71462;50.650;6.888;2023-07-31T02:15:23;12.48;;;4.10;;
81960;SDS011;71462;50.650;6.888;2023-07-31T02:17:26;11.23;;;3.58;;
81960;SDS011;71462;50.650;6.888;2023-07-31T02:19:30;9.95;;;3.55;;
81960;SDS011;71462;50.650;6.888;2023-07-31T02:21:32;10.38;;;3.55;;
81960;SDS011;71462;50.650;6.888;2023-07-31T02:23:35;7.00;;;3.00;;
81960;SDS011;71462;50.650;6.888;2023-07-31T02:25:37;7.90;;;3.15;;
81960;SDS011;71462;50.650;6.888;2023-07-31T02:27:40;7.05;;;3.22;;
81960;SDS011;71462;50.650;6.888;2023-07-31T02:29:43;10.63;;;3.33;;
81960;SDS011;71462;50.650;6.888;2023-07-31T02:31:47;12.02;;;3.72;;
81960;SDS011;71462;50.650;6.888;2023-07-31T02:33:50;7.18;;;2.95;;
81960;SDS011;71462;50.650;6.888;2023-07-31T02:35:52;7.15;;;3.20;;
81960;SDS011;71462;50.650;6.888;2023-07-31T02:37:55;7.68;;;3.08;;
81960;SDS011;71462;50.650;6.888;2023-07-31T02:39:57;9.35;;;3.00;;
81960;SDS011;71462;50.650;6.888;2023-07-31T02:42:00;9.10;;;3.55;;
81960;SDS011;71462;50.650;6.888;2023-07-31T02:44:02;12.30;;;3.38;;
81960;SDS011;71462;50.650;6.888;2023-07-31T02:46:05;7.97;;;3.40;;
81960;SDS011;71462;50.650;6.888;2023-07-31T02:48:08;7.28;;;2.85;;
81960;SDS011;71462;50.650;6.888;2023-07-31T02:50:11;8.90;;;3.63;;
81960;SDS011;71462;50.650;6.888;2023-07-31T02:52:13;7.65;;;3.55;;
81960;SDS011;71462;50.650;6.888;2023-07-31T02:54:16;8.80;;;3.25;;
81960;SDS011;71462;50.650;6.888;2023-07-31T02:56:18;8.35;;;3.20;;
81960;SDS011;71462;50.650;6.888;2023-07-31T02:58:21;7.80;;;3.00;;
81960;SDS011;71462;50.650;6.888;2023-07-31T03:00:23;11.00;;;4.30;;
81960;SDS011;71462;50.650;6.888;2023-07-31T03:02:26;9.98;;;3.80;;
81960;SDS011;71462;50.650;6.888;2023-07-31T03:04:30;6.10;;;3.17;;
81960;SDS011;71462;50.650;6.888;2023-07-31T03:06:33;14.95;;;4.60;;
81960;SDS011;71462;50.650;6.888;2023-07-31T03:08:34;5.35;;;2.80;;
81960;SDS011;71462;50.650;6.888;2023-07-31T03:10:37;6.93;;;3.60;;
81960;SDS011;71462;50.650;6.888;2023-07-31T03:12:39;10.18;;;3.42;;
81960;SDS011;71462;50.650;6.888;2023-07-31T03:14:42;8.25;;;3.08;;
81960;SDS011;71462;50.650;6.888;2023-07-31T03:16:45;9.52;;;3.25;;
81960;SDS011;71462;50.650;6.888;2023-07-31T03:18:47;11.70;;;3.95;;
81960;SDS011;71462;50.650;6.888;2023-07-31T03:20:51;6.53;;;3.20;;
81960;SDS011;71462;50.650;6.888;2023-07-31T03:22:54;10.65;;;3.40;;
81960;SDS011;71462;50.650;6.888;2023-07-31T03:24:56;7.40;;;3.13;;
81960;SDS011;71462;50.650;6.888;2023-07-31T03:26:58;8.98;;;4.00;;
81960;SDS011;71462;50.650;6.888;2023-07-31T03:29:00;8.93;;;3.72;;
81960;SDS011;71462;50.650;6.888;2023-07-31T03:31:03;8.18;;;3.38;;
81960;SDS011;71462;50.650;6.888;2023-07-31T03:33:06;9.35;;;3.83;;
81960;SDS011;71462;50.650;6.888;2023-07-31T03:35:08;10.63;;;3.28;;
81960;SDS011;71462;50.650;6.888;2023-07-31T03:37:11;8.90;;;3.45;;
81960;SDS011;71462;50.650;6.888;2023-07-31T03:39:14;7.72;;;3.35;;
81960;SDS011;71462;50.650;6.888;2023-07-31T03:41:16;7.55;;;3.28;;
81960;SDS011;71462;50.650;6.888;2023-07-31T03:43:18;7.95;;;3.35;;
81960;SDS011;71462;50.650;6.888;2023-07-31T03:45:20;9.07;;;3.90;;
81960;SDS011;71462;50.650;6.888;2023-07-31T03:47:23;11.82;;;3.85;;
81960;SDS011;71462;50.650;6.888;2023-07-31T03:49:26;8.18;;;3.45;;
81960;SDS011;71462;50.650;6.888;2023-07-31T03:51:28;9.38;;;4.00;;
81960;SDS011;71462;50.650;6.888;2023-07-31T03:53:32;5.65;;;2.90;;
81960;SDS011;71462;50.650;6.888;2023-07-31T03:55:35;7.03;;;3.45;;
81960;SDS011;71462;50.650;6.888;2023-07-31T03:57:37;9.60;;;3.70;;
81960;SDS011;71462;50.650;6.888;2023-07-31T03:59:40;9.57;;;4.18;;
81960;SDS011;71462;50.650;6.888;2023-07-31T04:01:42;8.50;;;3.45;;
81960;SDS011;71462;50.650;6.888;2023-07-31T04:03:45;10.02;;;3.80;;
81960;SDS011;71462;50.650;6.888;2023-07-31T04:05:47;10.32;;;3.63;;
81960;SDS011;71462;50.650;6.888;2023-07-31T04:07:50;9.70;;;3.70;;
81960;SDS011;71462;50.650;6.888;2023-07-31T04:09:54;10.52;;;4.20;;
81960;SDS011;71462;50.650;6.888;2023-07-31T04:11:57;7.93;;;3.55;;
81960;SDS011;71462;50.650;6.888;2023-07-31T04:13:59;8.07;;;3.35;;
81960;SDS011;71462;50.650;6.888;2023-07-31T04:16:02;12.85;;;4.15;;
81960;SDS011;71462;50.650;6.888;2023-07-31T04:18:05;7.50;;;3.38;;
81960;SDS011;71462;50.650;6.888;2023-07-31T04:20:08;11.00;;;3.95;;
81960;SDS011;71462;50.650;6.888;2023-07-31T04:22:12;7.93;;;3.78;;
81960;SDS011;71462;50.650;6.888;2023-07-31T04:24:14;8.35;;;3.78;;
81960;SDS011;71462;50.650;6.888;2023-07-31T04:26:18;9.65;;;4.35;;
81960;SDS011;71462;50.650;6.888;2023-07-31T04:28:21;10.00;;;3.42;;
81960;SDS011;71462;50.650;6.888;2023-07-31T04:30:24;10.50;;;3.65;;
81960;SDS011;71462;50.650;6.888;2023-07-31T04:32:26;10.35;;;4.15;;
81960;SDS011;71462;50.650;6.888;2023-07-31T04:34:30;5.95;;;3.50;;
81960;SDS011;71462;50.650;6.888;2023-07-31T04:36:33;11.23;;;4.20;;
81960;SDS011;71462;50.650;6.888;2023-07-31T04:38:36;8.32;;;3.80;;
81960;SDS011;71462;50.650;6.888;2023-07-31T04:40:38;9.63;;;3.70;;
81960;SDS011;71462;50.650;6.888;2023-07-31T04:42:42;11.43;;;4.05;;
81960;SDS011;71462;50.650;6.888;2023-07-31T04:44:45;8.48;;;3.33;;
81960;SDS011;71462;50.650;6.888;2023-07-31T04:46:47;6.63;;;3.17;;
81960;SDS011;71462;50.650;6.888;2023-07-31T04:48:50;7.47;;;3.85;;
81960;SDS011;71462;50.650;6.888;2023-07-31T04:50:53;6.03;;;3.40;;
81960;SDS011;71462;50.650;6.888;2023-07-31T04:52:55;8.02;;;3.55;;
81960;SDS011;71462;50.650;6.888;2023-07-31T04:54:58;8.27;;;3.47;;
81960;SDS011;71462;50.650;6.888;2023-07-31T04:57:01;10.85;;;3.63;;
81960;SDS011;71462;50.650;6.888;2023-07-31T04:59:04;9.90;;;3.78;;
81960;SDS011;71462;50.650;6.888;2023-07-31T05:01:06;9.55;;;3.47;;
81960;SDS011;71462;50.650;6.888;2023-07-31T05:03:09;10.88;;;3.92;;
81960;SDS011;71462;50.650;6.888;2023-07-31T05:05:13;8.00;;;3.88;;
81960;SDS011;71462;50.650;6.888;2023-07-31T05:07:15;5.28;;;3.38;;
81960;SDS011;71462;50.650;6.888;2023-07-31T05:09:19;9.05;;;3.60;;
81960;SDS011;71462;50.650;6.888;2023-07-31T05:11:21;6.18;;;3.05;;
81960;SDS011;71462;50.650;6.888;2023-07-31T05:13:24;7.95;;;3.50;;
81960;SDS011;71462;50.650;6.888;2023-07-31T05:15:28;8.30;;;3.65;;
81960;SDS011;71462;50.650;6.888;2023-07-31T05:17:30;9.00;;;3.38;;
81960;SDS011;71462;50.650;6.888;2023-07-31T05:19:33;7.80;;;3.10;;
81960;SDS011;71462;50.650;6.888;2023-07-31T05:21:36;7.95;;;3.33;;
81960;SDS011;71462;50.650;6.888;2023-07-31T05:23:38;7.20;;;3.08;;
81960;SDS011;71462;50.650;6.888;2023-07-31T05:25:41;10.50;;;3.55;;
81960;SDS011;71462;50.650;6.888;2023-07-31T05:27:43;7.43;;;3.13;;
81960;SDS011;71462;50.650;6.888;2023-07-31T05:29:46;7.00;;;3.78;;
81960;SDS011;71462;50.650;6.888;2023-07-31T05:31:50;7.47;;;3.65;;
81960;SDS011;71462;50.650;6.888;2023-07-31T05:33:53;8.00;;;3.28;;
81960;SDS011;71462;50.650;6.888;2023-07-31T05:35:55;7.25;;;3.13;;
81960;SDS011;71462;50.650;6.888;2023-07-31T05:37:58;9.63;;;3.90;;
81960;SDS011;71462;50.650;6.888;2023-07-31T05:40:00;9.20;;;3.60;;
81960;SDS011;71462;50.650;6.888;2023-07-31T05:42:03;7.75;;;3.53;;
81960;SDS011;71462;50.650;6.888;2023-07-31T05:44:06;7.75;;;3.03;;
81960;SDS011;71462;50.650;6.888;2023-07-31T05:46:09;7.45;;;3.28;;
81960;SDS011;71462;50.650;6.888;2023-07-31T05:48:12;8.30;;;3.33;;
81960;SDS011;71462;50.650;6.888;2023-07-31T05:50:14;9.57;;;3.63;;
81960;SDS011;71462;50.650;6.888;2023-07-31T05:52:20;9.27;;;3.80;;
81960;SDS011;71462;50.650;6.888;2023-07-31T05:54:22;6.50;;;3.30;;
81960;SDS011;71462;50.650;6.888;2023-07-31T05:56:25;5.88;;;3.30;;
81960;SDS011;71462;50.650;6.888;2023-07-31T05:58:28;10.35;;;4.05;;
81960;SDS011;71462;50.650;6.888;2023-07-31T06:00:31;8.15;;;3.60;;
81960;SDS011;71462;50.650;6.888;2023-07-31T06:02:33;11.05;;;4.13;;
81960;SDS011;71462;50.650;6.888;2023-07-31T06:04:39;9.95;;;3.88;;
81960;SDS011;71462;50.650;6.888;2023-07-31T06:06:42;13.13;;;3.85;;
81960;SDS011;71462;50.650;6.888;2023-07-31T06:08:44;10.85;;;3.60;;
81960;SDS011;71462;50.650;6.888;2023-07-31T06:10:47;9.85;;;3.78;;
81960;SDS011;71462;50.650;6.888;2023-07-31T06:12:50;11.45;;;3.90;;
81960;SDS011;71462;50.650;6.888;2023-07-31T06:14:52;7.80;;;3.95;;
81960;SDS011;71462;50.650;6.888;2023-07-31T06:16:55;10.55;;;4.00;;
81960;SDS011;71462;50.650;6.888;2023-07-31T06:18:58;12.32;;;3.75;;
81960;SDS011;71462;50.650;6.888;2023-07-31T06:21:01;8.43;;;3.45;;
81960;SDS011;71462;50.650;6.888;2023-07-31T06:23:04;7.05;;;3.83;;
81960;SDS011;71462;50.650;6.888;2023-07-31T06:25:07;9.07;;;3.42;;
81960;SDS011;71462;50.650;6.888;2023-07-31T06:27:14;9.50;;;3.83;;
81960;SDS011;71462;50.650;6.888;2023-07-31T06:29:16;10.90;;;4.10;;
81960;SDS011;71462;50.650;6.888;2023-07-31T06:31:19;8.75;;;3.70;;
81960;SDS011;71462;50.650;6.888;2023-07-31T06:33:24;10.48;;;3.88;;
81960;SDS011;71462;50.650;6.888;2023-07-31T06:35:27;7.30;;;3.60;;
81960;SDS011;71462;50.650;6.888;2023-07-31T06:37:31;10.20;;;4.10;;
81960;SDS011;71462;50.650;6.888;2023-07-31T06:39:36;12.10;;;4.10;;
81960;SDS011;71462;50.650;6.888;2023-07-31T06:41:43;10.50;;;4.65;;
81960;SDS011;71462;50.650;6.888;2023-07-31T06:43:46;9.05;;;4.30;;
81960;SDS011;71462;50.650;6.888;2023-07-31T06:45:49;13.10;;;4.68;;
81960;SDS011;71462;50.650;6.888;2023-07-31T06:47:52;10.82;;;3.83;;
81960;SDS011;71462;50.650;6.888;2023-07-31T06:49:55;13.25;;;5.05;;
81960;SDS011;71462;50.650;6.888;2023-07-31T06:51:58;12.45;;;4.72;;
81960;SDS011;71462;50.650;6.888;2023-07-31T06:54:02;11.27;;;4.40;;
81960;SDS011;71462;50.650;6.888;2023-07-31T06:56:05;7.80;;;3.90;;
81960;SDS011;71462;50.650;6.888;2023-07-31T06:58:07;12.02;;;4.55;;
81960;SDS011;71462;50.650;6.888;2023-07-31T07:00:10;9.73;;;4.18;;
81960;SDS011;71462;50.650;6.888;2023-07-31T07:02:12;10.93;;;4.60;;
81960;SDS011;71462;50.650;6.888;2023-07-31T07:04:15;8.48;;;4.00;;
81960;SDS011;71462;50.650;6.888;2023-07-31T07:06:17;8.50;;;3.72;;
81960;SDS011;71462;50.650;6.888;2023-07-31T07:08:20;11.50;;;4.18;;
81960;SDS011;71462;50.650;6.888;2023-07-31T07:10:27;10.70;;;3.78;;
81960;SDS011;71462;50.650;6.888;2023-07-31T07:12:30;8.27;;;4.35;;
81960;SDS011;71462;50.650;6.888;2023-07-31T07:14:33;9.55;;;4.10;;
81960;SDS011;71462;50.650;6.888;2023-07-31T07:16:36;14.32;;;5.13;;
81960;SDS011;71462;50.650;6.888;2023-07-31T07:18:39;11.35;;;4.78;;
81960;SDS011;71462;50.650;6.888;2023-07-31T07:21:01;11.70;;;4.30;;
81960;SDS011;71462;50.650;6.888;2023-07-31T07:23:04;9.63;;;4.15;;
81960;SDS011;71462;50.650;6.888;2023-07-31T07:25:07;11.43;;;4.10;;
81960;SDS011;71462;50.650;6.888;2023-07-31T07:27:11;13.60;;;4.63;;
81960;SDS011;71462;50.650;6.888;2023-07-31T07:29:14;11.05;;;4.55;;
81960;SDS011;71462;50.650;6.888;2023-07-31T07:31:16;12.25;;;4.97;;
81960;SDS011;71462;50.650;6.888;2023-07-31T07:33:18;17.90;;;4.63;;
81960;SDS011;71462;50.650;6.888;2023-07-31T07:35:21;13.82;;;4.50;;
81960;SDS011;71462;50.650;6.888;2023-07-31T07:37:24;11.88;;;4.30;;
81960;SDS011;71462;50.650;6.888;2023-07-31T07:39:26;10.15;;;4.45;;
81960;SDS011;71462;50.650;6.888;2023-07-31T07:41:29;12.13;;;4.28;;
81960;SDS011;71462;50.650;6.888;2023-07-31T07:43:32;10.02;;;3.53;;
81960;SDS011;71462;50.650;6.888;2023-07-31T07:45:34;14.27;;;4.28;;
81960;SDS011;71462;50.650;6.888;2023-07-31T07:47:37;9.93;;;3.40;;
81960;SDS011;71462;50.650;6.888;2023-07-31T07:49:40;10.70;;;3.58;;
81960;SDS011;71462;50.650;6.888;2023-07-31T07:51:48;12.95;;;3.67;;
81960;SDS011;71462;50.650;6.888;2023-07-31T07:53:51;6.60;;;3.72;;
81960;SDS011;71462;50.650;6.888;2023-07-31T07:55:54;7.15;;;3.03;;
81960;SDS011;71462;50.650;6.888;2023-07-31T07:57:56;7.05;;;3.10;;
81960;SDS011;71462;50.650;6.888;2023-07-31T08:00:00;6.90;;;3.25;;
81960;SDS011;71462;50.650;6.888;2023-07-31T08:02:03;9.18;;;2.90;;
81960;SDS011;71462;50.650;6.888;2023-07-31T08:04:05;7.90;;;3.45;;
81960;SDS011;71462;50.650;6.888;2023-07-31T08:06:08;8.40;;;3.20;;
81960;SDS011;71462;50.650;6.888;2023-07-31T08:08:13;8.48;;;3.42;;
81960;SDS011;71462;50.650;6.888;2023-07-31T08:10:17;11.65;;;3.15;;
81960;SDS011;71462;50.650;6.888;2023-07-31T08:12:20;13.60;;;3.13;;
81960;SDS011;71462;50.650;6.888;2023-07-31T08:14:22;7.68;;;2.90;;
81960;SDS011;71462;50.650;6.888;2023-07-31T08:16:26;8.52;;;3.38;;
81960;SDS011;71462;50.650;6.888;2023-07-31T08:18:28;9.77;;;3.78;;
81960;SDS011;71462;50.650;6.888;2023-07-31T08:20:31;9.02;;;3.05;;
81960;SDS011;71462;50.650;6.888;2023-07-31T08:22:33;9.32;;;3.53;;
81960;SDS011;71462;50.650;6.888;2023-07-31T08:24:36;7.65;;;2.65;;
81960;SDS011;71462;50.650;6.888;2023-07-31T08:26:39;6.47;;;2.80;;
81960;SDS011;71462;50.650;6.888;2023-07-31T08:28:42;12.85;;;3.45;;
81960;SDS011;71462;50.650;6.888;2023-07-31T08:30:44;7.60;;;2.72;;
81960;SDS011;71462;50.650;6.888;2023-07-31T08:32:49;7.05;;;2.75;;
81960;SDS011;71462;50.650;6.888;2023-07-31T08:34:51;7.07;;;2.72;;
81960;SDS011;71462;50.650;6.888;2023-07-31T08:36:54;8.35;;;3.05;;
81960;SDS011;71462;50.650;6.888;2023-07-31T08:38:56;7.47;;;2.92;;
81960;SDS011;71462;50.650;6.888;2023-07-31T08:40:59;8.40;;;2.72;;
81960;SDS011;71462;50.650;6.888;2023-07-31T08:43:01;7.60;;;2.97;;
81960;SDS011;71462;50.650;6.888;2023-07-31T08:45:04;7.22;;;3.00;;
81960;SDS011;71462;50.650;6.888;2023-07-31T08:47:07;7.38;;;2.80;;
81960;SDS011;71462;50.650;6.888;2023-07-31T08:49:11;6.68;;;2.75;;
81960;SDS011;71462;50.650;6.888;2023-07-31T08:51:14;6.38;;;2.92;;
81960;SDS011;71462;50.650;6.888;2023-07-31T08:53:17;6.95;;;2.70;;
81960;SDS011;71462;50.650;6.888;2023-07-31T08:55:19;6.15;;;2.70;;
81960;SDS011;71462;50.650;6.888;2023-07-31T08:57:24;7.28;;;2.85;;
81960;SDS011;71462;50.650;6.888;2023-07-31T08:59:30;7.80;;;2.78;;
81960;SDS011;71462;50.650;6.888;2023-07-31T09:01:34;6.35;;;2.55;;
81960;SDS011;71462;50.650;6.888;2023-07-31T09:03:41;4.90;;;2.30;;
81960;SDS011;71462;50.650;6.888;2023-07-31T09:05:46;9.48;;;2.80;;
81960;SDS011;71462;50.650;6.888;2023-07-31T09:07:49;6.75;;;2.72;;
81960;SDS011;71462;50.650;6.888;2023-07-31T09:09:53;6.43;;;2.80;;
81960;SDS011;71462;50.650;6.888;2023-07-31T09:11:57;6.65;;;3.00;;
81960;SDS011;71462;50.650;6.888;2023-07-31T09:13:59;8.00;;;2.70;;
81960;SDS011;71462;50.650;6.888;2023-07-31T09:16:09;7.28;;;2.88;;
81960;SDS011;71462;50.650;6.888;2023-07-31T09:18:12;5.13;;;2.53;;
81960;SDS011;71462;50.650;6.888;2023-07-31T09:20:16;6.60;;;2.70;;
81960;SDS011;71462;50.650;6.888;2023-07-31T09:22:24;8.85;;;2.70;;
81960;SDS011;71462;50.650;6.888;2023-07-31T09:24:37;5.15;;;2.75;;
81960;SDS011;71462;50.650;6.888;2023-07-31T09:26:39;5.75;;;2.40;;
81960;SDS011;71462;50.650;6.888;2023-07-31T09:28:42;5.88;;;2.65;;
81960;SDS011;71462;50.650;6.888;2023-07-31T09:30:47;6.93;;;3.08;;
81960;SDS011;71462;50.650;6.888;2023-07-31T09:32:51;6.93;;;2.75;;
81960;SDS011;71462;50.650;6.888;2023-07-31T09:35:01;9.93;;;3.30;;
81960;SDS011;71462;50.650;6.888;2023-07-31T09:37:15;5.38;;;2.65;;
81960;SDS011;71462;50.650;6.888;2023-07-31T09:39:20;7.60;;;2.30;;
81960;SDS011;71462;50.650;6.888;2023-07-31T09:41:22;8.70;;;2.67;;
81960;SDS011;71462;50.650;6.888;2023-07-31T09:43:25;8.07;;;3.53;;
81960;SDS011;71462;50.650;6.888;2023-07-31T09:45:28;5.07;;;2.33;;
81960;SDS011;71462;50.650;6.888;2023-07-31T09:47:45;7.47;;;2.80;;
81960;SDS011;71462;50.650;6.888;2023-07-31T09:49:49;6.22;;;2.53;;
81960;SDS011;71462;50.650;6.888;2023-07-31T09:51:54;8.50;;;3.05;;
81960;SDS011;71462;50.650;6.888;2023-07-31T09:53:57;7.90;;;3.33;;
81960;SDS011;71462;50.650;6.888;2023-07-31T09:56:01;7.97;;;2.85;;
81960;SDS011;71462;50.650;6.888;2023-07-31T09:58:05;8.48;;;3.20;;
81960;SDS011;71462;50.650;6.888;2023-07-31T10:00:09;7.63;;;2.83;;
81960;SDS011;71462;50.650;6.888;2023-07-31T10:02:13;6.20;;;2.97;;
81960;SDS011;71462;50.650;6.888;2023-07-31T10:04:23;10.25;;;2.92;;
81960;SDS011;71462;50.650;6.888;2023-07-31T10:06:32;7.55;;;2.90;;
81960;SDS011;71462;50.650;6.888;2023-07-31T10:08:36;8.18;;;2.88;;
81960;SDS011;71462;50.650;6.888;2023-07-31T10:10:40;6.78;;;2.83;;
81960;SDS011;71462;50.650;6.888;2023-07-31T10:12:46;7.20;;;3.33;;
81960;SDS011;71462;50.650;6.888;2023-07-31T10:14:50;9.63;;;3.00;;
81960;SDS011;71462;50.650;6.888;2023-07-31T10:16:56;12.52;;;3.00;;
81960;SDS011;71462;50.650;6.888;2023-07-31T10:18:59;7.25;;;3.00;;
81960;SDS011;71462;50.650;6.888;2023-07-31T10:21:02;13.20;;;2.90;;
81960;SDS011;71462;50.650;6.888;2023-07-31T10:23:05;5.57;;;2.70;;
81960;SDS011;71462;50.650;6.888;2023-07-31T10:25:08;7.82;;;2.42;;
81960;SDS011;71462;50.650;6.888;2023-07-31T10:27:12;6.07;;;2.47;;
81960;SDS011;71462;50.650;6.888;2023-07-31T10:29:16;8.90;;;3.42;;
81960;SDS011;71462;50.650;6.888;2023-07-31T10:31:19;7.80;;;2.58;;
81960;SDS011;71462;50.650;6.888;2023-07-31T10:33:23;9.75;;;3.00;;
81960;SDS011;71462;50.650;6.888;2023-07-31T10:35:27;5.35;;;2.67;;
81960;SDS011;71462;50.650;6.888;2023-07-31T10:37:30;5.75;;;2.58;;
81960;SDS011;71462;50.650;6.888;2023-07-31T10:39:38;5.35;;;2.25;;
81960;SDS011;71462;50.650;6.888;2023-07-31T10:41:41;5.45;;;2.20;;
81960;SDS011;71462;50.650;6.888;2023-07-31T10:43:45;8.15;;;2.40;;
81960;SDS011;71462;50.650;6.888;2023-07-31T10:45:49;5.20;;;2.65;;
81960;SDS011;71462;50.650;6.888;2023-07-31T10:47:57;4.50;;;2.40;;
81960;SDS011;71462;50.650;6.888;2023-07-31T10:50:11;5.38;;;2.22;;
81960;SDS011;71462;50.650;6.888;2023-07-31T10:52:19;6.53;;;2.30;;
81960;SDS011;71462;50.650;6.888;2023-07-31T10:54:27;5.40;;;2.30;;
81960;SDS011;71462;50.650;6.888;2023-07-31T10:56:30;4.55;;;2.20;;
81960;SDS011;71462;50.650;6.888;2023-07-31T10:58:39;6.95;;;2.70;;
81960;SDS011;71462;50.650;6.888;2023-07-31T11:00:46;4.82;;;2.35;;
81960;SDS011;71462;50.650;6.888;2023-07-31T11:02:57;10.23;;;2.75;;
81960;SDS011;71462;50.650;6.888;2023-07-31T11:05:07;5.38;;;2.30;;
81960;SDS011;71462;50.650;6.888;2023-07-31T11:07:11;7.43;;;2.22;;
81960;SDS011;71462;50.650;6.888;2023-07-31T11:09:14;6.60;;;2.10;;
81960;SDS011;71462;50.650;6.888;2023-07-31T11:11:17;5.38;;;2.50;;
81960;SDS011;71462;50.650;6.888;2023-07-31T11:13:21;5.05;;;2.30;;
81960;SDS011;71462;50.650;6.888;2023-07-31T11:15:25;5.07;;;2.13;;
81960;SDS011;71462;50.650;6.888;2023-07-31T11:17:29;6.38;;;2.15;;
81960;SDS011;71462;50.650;6.888;2023-07-31T11:19:32;6.75;;;2.20;;
81960;SDS011;71462;50.650;6.888;2023-07-31T11:21:35;4.53;;;2.00;;
81960;SDS011;71462;50.650;6.888;2023-07-31T11:23:39;5.72;;;2.00;;
81960;SDS011;71462;50.650;6.888;2023-07-31T11:25:41;3.78;;;2.00;;
81960;SDS011;71462;50.650;6.888;2023-07-31T11:27:44;4.28;;;1.80;;
81960;SDS011;71462;50.650;6.888;2023-07-31T11:29:46;3.97;;;1.75;;
81960;SDS011;71462;50.650;6.888;2023-07-31T11:31:50;4.03;;;1.83;;
81960;SDS011;71462;50.650;6.888;2023-07-31T11:34:03;3.15;;;1.70;;
81960;SDS011;71462;50.650;6.888;2023-07-31T11:36:10;3.65;;;1.55;;
81960;SDS011;71462;50.650;6.888;2023-07-31T11:38:20;4.07;;;1.95;;
81960;SDS011;71462;50.650;6.888;2023-07-31T11:40:24;3.15;;;1.65;;
81960;SDS011;71462;50.650;6.888;2023-07-31T11:42:33;3.45;;;1.55;;
81960;SDS011;71462;50.650;6.888;2023-07-31T11:44:39;3.00;;;1.58;;
81960;SDS011;71462;50.650;6.888;2023-07-31T11:46:48;3.47;;;1.77;;
81960;SDS011;71462;50.650;6.888;2023-07-31T11:48:52;6.90;;;2.58;;
81960;SDS011;71462;50.650;6.888;2023-07-31T11:51:02;4.07;;;2.22;;
81960;SDS011;71462;50.650;6.888;2023-07-31T11:53:07;5.22;;;2.95;;
81960;SDS011;71462;50.650;6.888;2023-07-31T11:55:10;5.28;;;2.50;;
81960;SDS011;71462;50.650;6.888;2023-07-31T11:57:13;6.05;;;2.80;;
81960;SDS011;71462;50.650;6.888;2023-07-31T11:59:16;7.15;;;2.75;;
81960;SDS011;71462;50.650;6.888;2023-07-31T12:01:19;6.65;;;3.03;;
81960;SDS011;71462;50.650;6.888;2023-07-31T12:03:24;6.38;;;3.28;;
81960;SDS011;71462;50.650;6.888;2023-07-31T12:05:27;8.13;;;2.60;;
81960;SDS011;71462;50.650;6.888;2023-07-31T12:07:42;9.80;;;3.85;;
81960;SDS011;71462;50.650;6.888;2023-07-31T12:09:53;6.78;;;3.08;;
81960;SDS011;71462;50.650;6.888;2023-07-31T12:11:57;8.75;;;3.20;;
81960;SDS011;71462;50.650;6.888;2023-07-31T12:13:59;12.13;;;4.15;;
81960;SDS011;71462;50.650;6.888;2023-07-31T12:16:02;9.45;;;3.65;;
81960;SDS011;71462;50.650;6.888;2023-07-31T12:18:07;11.15;;;3.40;;
81960;SDS011;71462;50.650;6.888;2023-07-31T12:20:11;12.02;;;4.07;;
81960;SDS011;71462;50.650;6.888;2023-07-31T12:22:15;8.40;;;3.80;;
81960;SDS011;71462;50.650;6.888;2023-07-31T12:24:18;8.43;;;3.78;;